createdAt,value
2023-05-22T00:00:56.248Z,3.97
2023-05-22T00:05:59.045Z,3.75
2023-05-22T00:11:01.151Z,4.05
2023-05-22T00:16:03.466Z,3.00
2023-05-22T00:21:05.920Z,2.90
2023-05-22T00:26:07.903Z,3.90
2023-05-22T00:31:09.850Z,3.65
2023-05-22T00:36:14.050Z,3.50
2023-05-22T00:41:16.425Z,3.90
2023-05-22T00:46:21.914Z,3.80
2023-05-22T00:51:25.231Z,3.80
2023-05-22T00:56:29.140Z,3.75
2023-05-22T01:01:33.984Z,4.30
2023-05-22T01:06:36.515Z,4.28
2023-05-22T01:11:50.653Z,3.58
2023-05-22T01:17:30.089Z,3.95
2023-05-22T01:23:09.164Z,3.47
2023-05-22T01:28:23.038Z,3.90
2023-05-22T01:33:26.964Z,4.03
2023-05-22T01:38:30.205Z,4.35
2023-05-22T01:43:35.410Z,4.30
2023-05-22T01:48:37.385Z,4.53
2023-05-22T01:53:46.392Z,4.07
2023-05-22T01:59:02.011Z,3.70
2023-05-22T02:04:06.786Z,3.75
2023-05-22T02:09:12.408Z,3.30
2023-05-22T02:14:18.950Z,4.28
2023-05-22T02:19:23.181Z,3.83
2023-05-22T02:24:25.647Z,4.07
2023-05-22T02:29:32.686Z,3.88
2023-05-22T02:34:35.197Z,4.20
2023-05-22T02:39:37.340Z,4.15
2023-05-22T02:44:40.325Z,4.22
2023-05-22T02:49:42.359Z,3.85
2023-05-22T02:54:44.515Z,3.78
2023-05-22T02:59:46.492Z,4.05
2023-05-22T03:04:49.221Z,4.00
2023-05-22T03:09:51.178Z,4.03
2023-05-22T03:14:53.224Z,3.85
2023-05-22T03:19:55.518Z,3.97
2023-05-22T03:24:57.733Z,4.00
2023-05-22T03:30:00.026Z,4.15
2023-05-22T03:35:02.265Z,3.92
2023-05-22T03:40:05.049Z,3.70
2023-05-22T03:45:08.054Z,4.47
2023-05-22T03:50:11.154Z,4.28
2023-05-22T03:55:13.677Z,3.92
2023-05-22T04:00:19.783Z,4.05
2023-05-22T04:05:25.120Z,3.83
2023-05-22T04:10:27.230Z,3.85
2023-05-22T04:15:29.391Z,3.65
2023-05-22T04:20:34.154Z,4.68
2023-05-22T04:25:56.790Z,4.55
2023-05-22T04:30:59.585Z,3.75
2023-05-22T04:36:02.570Z,3.42
2023-05-22T04:41:04.829Z,3.22
2023-05-22T04:46:09.080Z,4.13
2023-05-22T04:51:12.310Z,3.90
2023-05-22T04:56:21.320Z,3.55
2023-05-22T05:01:32.917Z,5.18
2023-05-22T05:06:36.019Z,3.40
2023-05-22T05:11:39.554Z,3.63
2023-05-22T05:16:42.146Z,3.08
2023-05-22T05:21:44.299Z,2.92
2023-05-22T05:26:46.599Z,3.13
2023-05-22T05:31:51.180Z,3.00
2023-05-22T05:37:07.816Z,3.40
2023-05-22T05:42:18.401Z,2.83
2023-05-22T05:47:24.311Z,3.40
2023-05-22T05:52:33.054Z,3.08
2023-05-22T05:57:39.827Z,2.92
2023-05-22T06:02:47.525Z,3.80
2023-05-22T06:08:15.832Z,3.10
2023-05-22T06:13:18.387Z,3.17
2023-05-22T06:18:21.429Z,2.63
2023-05-22T06:23:23.744Z,3.42
2023-05-22T06:28:26.433Z,3.65
2023-05-22T06:33:28.698Z,3.55
2023-05-22T06:38:32.992Z,3.10
2023-05-22T06:43:35.955Z,3.70
2023-05-22T06:48:47.738Z,3.42
2023-05-22T06:53:58.478Z,4.32
2023-05-22T06:59:06.843Z,2.85
2023-05-22T07:04:31.859Z,2.78
2023-05-22T07:09:37.038Z,3.15
2023-05-22T07:14:40.381Z,2.63
2023-05-22T07:19:43.133Z,2.35
2023-05-22T07:24:47.387Z,2.92
2023-05-22T07:29:51.347Z,3.22
2023-05-22T07:34:57.284Z,2.95
2023-05-22T07:39:59.763Z,2.67
2023-05-22T07:45:02.522Z,2.33
2023-05-22T07:50:06.020Z,2.80
2023-05-22T07:55:11.719Z,2.50
2023-05-22T08:00:17.770Z,2.88
2023-05-22T08:05:20.294Z,3.00
2023-05-22T08:10:23.218Z,2.85
2023-05-22T08:15:25.662Z,2.35
2023-05-22T08:20:28.004Z,7.97
2023-05-22T08:25:30.390Z,2.42
2023-05-22T08:30:32.545Z,2.72
2023-05-22T08:35:34.705Z,2.20
2023-05-22T08:40:38.585Z,2.30
2023-05-22T08:45:43.076Z,2.30
2023-05-22T08:50:48.377Z,2.05
2023-05-22T08:55:55.016Z,1.92
2023-05-22T09:00:58.441Z,1.60
2023-05-22T09:06:02.411Z,1.60
2023-05-22T09:11:05.081Z,2.17
2023-05-22T09:16:10.225Z,1.90
2023-05-22T09:21:28.687Z,1.65
2023-05-22T09:26:33.891Z,1.50
2023-05-22T09:31:43.153Z,2.25
2023-05-22T09:36:46.639Z,1.95
2023-05-22T09:41:49.304Z,2.10
2023-05-22T09:46:51.537Z,2.00
2023-05-22T09:51:55.340Z,2.00
2023-05-22T09:57:00.106Z,1.85
2023-05-22T10:02:03.108Z,2.55
2023-05-22T10:07:06.732Z,2.63
2023-05-22T10:12:11.004Z,2.40
2023-05-22T10:17:13.247Z,2.83
2023-05-22T10:22:21.143Z,2.15
2023-05-22T10:27:23.503Z,2.90
2023-05-22T10:32:55.294Z,2.45
2023-05-22T10:38:25.106Z,2.92
2023-05-22T10:43:32.155Z,2.58
2023-05-22T10:48:42.120Z,2.20
2023-05-22T10:53:45.554Z,2.35
2023-05-22T10:58:59.296Z,1.85
2023-05-22T11:04:12.693Z,2.40
2023-05-22T11:09:20.196Z,2.40
2023-05-22T11:14:22.562Z,2.05
2023-05-22T11:19:26.602Z,2.63
2023-05-22T11:24:34.570Z,2.33
2023-05-22T11:29:38.942Z,1.95
2023-05-22T11:34:43.269Z,2.17
2023-05-22T11:39:58.145Z,2.05
2023-05-22T11:45:00.814Z,2.17
2023-05-22T11:50:03.526Z,1.80
2023-05-22T11:55:08.090Z,2.15
2023-05-22T12:00:11.211Z,1.85
2023-05-22T12:05:16.749Z,2.10
2023-05-22T12:10:19.607Z,2.08
2023-05-22T12:15:21.752Z,1.77
2023-05-22T12:20:31.381Z,1.92
2023-05-22T12:25:39.288Z,2.10
2023-05-22T12:30:42.700Z,2.50
2023-05-22T12:35:44.836Z,1.65
2023-05-22T12:40:47.058Z,1.63
2023-05-22T12:45:49.606Z,2.20
2023-05-22T12:50:54.716Z,1.80
2023-05-22T12:55:56.847Z,2.05
2023-05-22T13:00:58.962Z,1.80
2023-05-22T13:06:01.004Z,2.08
2023-05-22T13:11:03.149Z,2.15
2023-05-22T13:16:07.550Z,1.88
2023-05-22T13:21:10.758Z,2.25
2023-05-22T13:26:13.052Z,1.95
2023-05-22T13:31:15.813Z,2.47
2023-05-22T13:36:18.640Z,2.10
2023-05-22T13:41:21.433Z,1.80
2023-05-22T13:46:23.696Z,2.17
2023-05-22T13:51:26.353Z,2.10
2023-05-22T13:56:28.512Z,2.13
2023-05-22T14:01:31.741Z,2.70
2023-05-22T14:06:34.261Z,2.28
2023-05-22T14:11:36.393Z,2.55
2023-05-22T14:16:38.742Z,2.15
2023-05-22T14:21:41.418Z,2.20
2023-05-22T14:26:53.549Z,2.13
2023-05-22T14:32:07.407Z,1.98
2023-05-22T14:37:09.573Z,1.75
2023-05-22T14:42:11.668Z,2.00
2023-05-22T14:47:16.683Z,2.03
2023-05-22T14:52:18.711Z,2.30
2023-05-22T14:57:20.857Z,2.08
2023-05-22T15:02:24.952Z,1.88
2023-05-22T15:07:39.678Z,2.00
2023-05-22T15:12:45.219Z,1.80
2023-05-22T15:17:47.375Z,2.42
2023-05-22T15:22:50.216Z,1.60
2023-05-22T15:27:52.163Z,2.05
2023-05-22T15:32:54.567Z,1.60
2023-05-22T15:38:03.824Z,2.20
2023-05-22T15:43:07.070Z,1.90
2023-05-22T15:48:09.350Z,1.83
2023-05-22T15:53:11.519Z,1.95
2023-05-22T15:58:14.123Z,1.65
2023-05-22T16:03:17.237Z,1.60
2023-05-22T16:08:19.879Z,2.38
2023-05-22T16:13:22.104Z,1.98
2023-05-22T16:18:24.493Z,2.08
2023-05-22T16:23:27.149Z,1.85
2023-05-22T16:28:29.423Z,1.45
2023-05-22T16:33:33.288Z,1.60
2023-05-22T16:38:35.595Z,1.40
2023-05-22T16:43:38.403Z,1.50
2023-05-22T16:48:41.123Z,1.90
2023-05-22T16:53:43.402Z,1.73
2023-05-22T16:58:45.521Z,1.60
2023-05-22T17:03:48.328Z,2.00
2023-05-22T17:08:51.034Z,1.98
2023-05-22T17:13:55.336Z,1.90
2023-05-22T17:18:57.639Z,1.70
2023-05-22T17:24:00.075Z,2.13
2023-05-22T17:29:02.952Z,1.80
2023-05-22T17:34:05.676Z,2.03
2023-05-22T17:39:08.839Z,1.90
2023-05-22T17:44:11.951Z,1.98
2023-05-22T17:49:14.110Z,2.55
2023-05-22T17:54:17.370Z,1.85
2023-05-22T17:59:19.412Z,3.42
2023-05-22T18:04:22.597Z,1.85
2023-05-22T18:09:24.835Z,1.92
2023-05-22T18:14:27.028Z,1.80
2023-05-22T18:19:29.286Z,1.77
2023-05-22T18:24:33.034Z,1.65
2023-05-22T18:29:35.202Z,1.92
2023-05-22T18:34:37.870Z,2.00
2023-05-22T18:39:40.037Z,1.25
2023-05-22T18:44:42.161Z,1.83
2023-05-22T18:49:44.640Z,1.95
2023-05-22T18:54:46.998Z,2.13
2023-05-22T18:59:49.872Z,1.77
2023-05-22T19:04:51.993Z,2.17
2023-05-22T19:09:54.611Z,2.13
2023-05-22T19:14:56.779Z,2.05
2023-05-22T19:19:58.737Z,1.80
2023-05-22T19:25:02.360Z,1.92
2023-05-22T19:30:05.439Z,1.88
2023-05-22T19:35:07.968Z,1.77
2023-05-22T19:40:11.450Z,1.58
2023-05-22T19:45:13.476Z,2.55
2023-05-22T19:50:15.641Z,2.17
2023-05-22T19:55:18.953Z,1.83
2023-05-22T20:00:21.282Z,2.33
2023-05-22T20:05:23.632Z,1.63
2023-05-22T20:10:26.736Z,2.00
2023-05-22T20:15:30.607Z,2.13
2023-05-22T20:20:32.660Z,1.98
2023-05-22T20:25:34.589Z,1.70
2023-05-22T20:30:36.628Z,1.90
2023-05-22T20:35:38.917Z,2.03
2023-05-22T20:40:46.743Z,2.03
2023-05-22T20:45:48.744Z,1.80
2023-05-22T20:50:50.927Z,2.17
2023-05-22T20:55:53.390Z,2.15
2023-05-22T21:00:56.288Z,2.03
2023-05-22T21:05:58.459Z,1.85
2023-05-22T21:11:00.829Z,2.25
2023-05-22T21:16:02.792Z,2.35
2023-05-22T21:21:04.932Z,1.75
2023-05-22T21:26:06.870Z,2.17
2023-05-22T21:31:08.993Z,2.10
2023-05-22T21:36:11.066Z,2.22
2023-05-22T21:41:13.776Z,2.13
2023-05-22T21:46:15.779Z,1.77
2023-05-22T21:51:21.514Z,2.30
2023-05-22T21:56:28.402Z,1.85
2023-05-22T22:01:32.537Z,2.15
2023-05-22T22:06:41.064Z,2.20
2023-05-22T22:11:43.025Z,2.10
2023-05-22T22:16:45.577Z,2.22
2023-05-22T22:21:47.590Z,1.95
2023-05-22T22:26:49.577Z,1.80
2023-05-22T22:31:52.973Z,2.10
2023-05-22T22:36:55.006Z,2.80
2023-05-22T22:42:04.311Z,2.33
2023-05-22T22:47:13.037Z,2.30
2023-05-22T22:52:15.006Z,1.92
2023-05-22T22:57:17.115Z,2.50
2023-05-22T23:02:19.065Z,1.75
2023-05-22T23:07:24.101Z,2.13
2023-05-22T23:12:26.433Z,2.00
2023-05-22T23:17:28.636Z,2.20
2023-05-22T23:22:30.701Z,2.38
2023-05-22T23:27:32.637Z,2.58
2023-05-22T23:32:34.977Z,2.40
2023-05-22T23:37:37.631Z,1.85
2023-05-22T23:43:10.982Z,2.28
2023-05-22T23:48:13.993Z,2.28
2023-05-22T23:53:15.811Z,2.85
2023-05-22T23:58:17.914Z,2.13
